sensor_id;sensor_type;location;lat;lon;timestamp;P1;durP1;ratioP1;P2;durP2;ratioP2
22024;SDS011;11176;51.448;6.650;2023-03-23T00:01:23;6.30;;;2.58;;
22024;SDS011;11176;51.448;6.650;2023-03-23T00:03:52;4.07;;;2.15;;
22024;SDS011;11176;51.448;6.650;2023-03-23T00:06:22;4.72;;;2.22;;
22024;SDS011;11176;51.448;6.650;2023-03-23T00:08:49;3.65;;;1.90;;
22024;SDS011;11176;51.448;6.650;2023-03-23T00:11:25;4.95;;;2.47;;
22024;SDS011;11176;51.448;6.650;2023-03-23T00:13:56;4.07;;;2.17;;
22024;SDS011;11176;51.448;6.650;2023-03-23T00:16:26;3.90;;;2.00;;
22024;SDS011;11176;51.448;6.650;2023-03-23T00:18:58;3.65;;;2.20;;
22024;SDS011;11176;51.448;6.650;2023-03-23T00:21:30;3.33;;;2.15;;
22024;SDS011;11176;51.448;6.650;2023-03-23T00:24:05;3.83;;;2.15;;
22024;SDS011;11176;51.448;6.650;2023-03-23T00:26:36;4.15;;;2.17;;
22024;SDS011;11176;51.448;6.650;2023-03-23T00:29:05;5.13;;;2.30;;
22024;SDS011;11176;51.448;6.650;2023-03-23T00:31:33;3.85;;;2.25;;
22024;SDS011;11176;51.448;6.650;2023-03-23T00:34:02;7.80;;;2.50;;
22024;SDS011;11176;51.448;6.650;2023-03-23T00:36:30;5.57;;;2.30;;
22024;SDS011;11176;51.448;6.650;2023-03-23T00:38:57;4.95;;;1.90;;
22024;SDS011;11176;51.448;6.650;2023-03-23T00:41:26;6.38;;;2.63;;
22024;SDS011;11176;51.448;6.650;2023-03-23T00:43:56;6.07;;;2.60;;
22024;SDS011;11176;51.448;6.650;2023-03-23T00:46:23;4.38;;;2.28;;
22024;SDS011;11176;51.448;6.650;2023-03-23T00:48:49;4.32;;;2.00;;
22024;SDS011;11176;51.448;6.650;2023-03-23T00:51:16;4.32;;;2.45;;
22024;SDS011;11176;51.448;6.650;2023-03-23T00:53:44;5.07;;;2.20;;
22024;SDS011;11176;51.448;6.650;2023-03-23T00:56:11;4.70;;;2.30;;
22024;SDS011;11176;51.448;6.650;2023-03-23T00:58:37;4.55;;;2.08;;
22024;SDS011;11176;51.448;6.650;2023-03-23T01:01:02;5.22;;;2.33;;
22024;SDS011;11176;51.448;6.650;2023-03-23T01:03:28;5.13;;;2.13;;
22024;SDS011;11176;51.448;6.650;2023-03-23T01:05:57;4.82;;;2.33;;
22024;SDS011;11176;51.448;6.650;2023-03-23T01:08:23;4.57;;;2.33;;
22024;SDS011;11176;51.448;6.650;2023-03-23T01:10:50;5.50;;;2.33;;
22024;SDS011;11176;51.448;6.650;2023-03-23T01:13:15;4.05;;;2.13;;
22024;SDS011;11176;51.448;6.650;2023-03-23T01:15:41;3.20;;;2.17;;
22024;SDS011;11176;51.448;6.650;2023-03-23T01:18:08;3.90;;;2.05;;
22024;SDS011;11176;51.448;6.650;2023-03-23T01:20:35;4.07;;;2.10;;
22024;SDS011;11176;51.448;6.650;2023-03-23T01:23:01;5.40;;;2.20;;
22024;SDS011;11176;51.448;6.650;2023-03-23T01:25:28;4.65;;;2.15;;
22024;SDS011;11176;51.448;6.650;2023-03-23T01:27:55;4.50;;;1.90;;
22024;SDS011;11176;51.448;6.650;2023-03-23T01:30:22;4.82;;;2.53;;
22024;SDS011;11176;51.448;6.650;2023-03-23T01:32:47;4.20;;;2.25;;
22024;SDS011;11176;51.448;6.650;2023-03-23T01:35:13;4.70;;;2.15;;
22024;SDS011;11176;51.448;6.650;2023-03-23T01:37:39;5.38;;;2.40;;
22024;SDS011;11176;51.448;6.650;2023-03-23T01:40:05;7.65;;;2.13;;
22024;SDS011;11176;51.448;6.650;2023-03-23T01:42:33;4.10;;;2.10;;
22024;SDS011;11176;51.448;6.650;2023-03-23T01:47:47;5.40;;;2.10;;
22024;SDS011;11176;51.448;6.650;2023-03-23T01:50:20;4.30;;;1.98;;
22024;SDS011;11176;51.448;6.650;2023-03-23T01:52:50;4.13;;;2.30;;
22024;SDS011;11176;51.448;6.650;2023-03-23T01:55:18;5.72;;;2.20;;
22024;SDS011;11176;51.448;6.650;2023-03-23T01:57:47;3.80;;;2.00;;
22024;SDS011;11176;51.448;6.650;2023-03-23T02:00:14;3.50;;;2.20;;
22024;SDS011;11176;51.448;6.650;2023-03-23T02:02:44;3.65;;;2.20;;
22024;SDS011;11176;51.448;6.650;2023-03-23T02:05:17;4.60;;;2.00;;
22024;SDS011;11176;51.448;6.650;2023-03-23T02:07:48;5.85;;;2.28;;
22024;SDS011;11176;51.448;6.650;2023-03-23T02:10:15;5.25;;;2.45;;
22024;SDS011;11176;51.448;6.650;2023-03-23T02:12:42;5.72;;;2.42;;
22024;SDS011;11176;51.448;6.650;2023-03-23T02:15:08;5.20;;;2.53;;
22024;SDS011;11176;51.448;6.650;2023-03-23T02:23:23;3.90;;;1.88;;
22024;SDS011;11176;51.448;6.650;2023-03-23T02:29:02;4.88;;;2.35;;
22024;SDS011;11176;51.448;6.650;2023-03-23T02:37:11;3.63;;;2.30;;
22024;SDS011;11176;51.448;6.650;2023-03-23T02:39:45;4.93;;;2.80;;
22024;SDS011;11176;51.448;6.650;2023-03-23T02:42:20;3.60;;;1.85;;
22024;SDS011;11176;51.448;6.650;2023-03-23T02:44:48;4.72;;;2.50;;
22024;SDS011;11176;51.448;6.650;2023-03-23T02:47:25;4.47;;;2.15;;
22024;SDS011;11176;51.448;6.650;2023-03-23T02:49:53;4.50;;;2.15;;
22024;SDS011;11176;51.448;6.650;2023-03-23T02:52:21;3.70;;;2.17;;
22024;SDS011;11176;51.448;6.650;2023-03-23T02:54:51;2.65;;;1.90;;
22024;SDS011;11176;51.448;6.650;2023-03-23T02:57:20;5.65;;;2.60;;
22024;SDS011;11176;51.448;6.650;2023-03-23T02:59:47;4.07;;;2.35;;
22024;SDS011;11176;51.448;6.650;2023-03-23T03:02:29;3.88;;;2.15;;
22024;SDS011;11176;51.448;6.650;2023-03-23T03:13:24;4.55;;;2.22;;
22024;SDS011;11176;51.448;6.650;2023-03-23T03:15:59;4.45;;;2.15;;
22024;SDS011;11176;51.448;6.650;2023-03-23T03:18:35;4.90;;;2.33;;
22024;SDS011;11176;51.448;6.650;2023-03-23T03:21:13;4.78;;;2.22;;
22024;SDS011;11176;51.448;6.650;2023-03-23T03:23:43;4.85;;;1.95;;
22024;SDS011;11176;51.448;6.650;2023-03-23T03:26:14;5.97;;;2.67;;
22024;SDS011;11176;51.448;6.650;2023-03-23T03:28:47;3.78;;;2.28;;
22024;SDS011;11176;51.448;6.650;2023-03-23T03:31:20;3.30;;;2.17;;
22024;SDS011;11176;51.448;6.650;2023-03-23T03:33:50;3.42;;;1.90;;
22024;SDS011;11176;51.448;6.650;2023-03-23T03:36:17;4.65;;;2.15;;
22024;SDS011;11176;51.448;6.650;2023-03-23T03:38:47;2.88;;;2.05;;
22024;SDS011;11176;51.448;6.650;2023-03-23T03:41:15;3.70;;;2.30;;
22024;SDS011;11176;51.448;6.650;2023-03-23T03:43:41;5.03;;;2.08;;
22024;SDS011;11176;51.448;6.650;2023-03-23T03:46:07;3.05;;;2.00;;
22024;SDS011;11176;51.448;6.650;2023-03-23T03:48:32;4.32;;;2.13;;
22024;SDS011;11176;51.448;6.650;2023-03-23T03:50:58;3.30;;;2.10;;
22024;SDS011;11176;51.448;6.650;2023-03-23T03:53:29;6.10;;;2.33;;
22024;SDS011;11176;51.448;6.650;2023-03-23T03:55:56;3.30;;;1.80;;
22024;SDS011;11176;51.448;6.650;2023-03-23T03:58:22;4.60;;;1.88;;
22024;SDS011;11176;51.448;6.650;2023-03-23T04:01:06;2.78;;;1.80;;
22024;SDS011;11176;51.448;6.650;2023-03-23T04:03:36;3.30;;;1.80;;
22024;SDS011;11176;51.448;6.650;2023-03-23T04:06:07;3.72;;;2.00;;
22024;SDS011;11176;51.448;6.650;2023-03-23T04:08:33;3.47;;;1.80;;
22024;SDS011;11176;51.448;6.650;2023-03-23T04:11:00;3.92;;;2.03;;
22024;SDS011;11176;51.448;6.650;2023-03-23T04:13:28;3.10;;;1.77;;
22024;SDS011;11176;51.448;6.650;2023-03-23T04:16:17;3.85;;;2.05;;
22024;SDS011;11176;51.448;6.650;2023-03-23T04:18:44;4.10;;;1.95;;
22024;SDS011;11176;51.448;6.650;2023-03-23T04:21:13;3.67;;;1.80;;
22024;SDS011;11176;51.448;6.650;2023-03-23T04:23:39;3.75;;;1.98;;
22024;SDS011;11176;51.448;6.650;2023-03-23T04:26:06;3.10;;;1.80;;
22024;SDS011;11176;51.448;6.650;2023-03-23T04:28:38;3.58;;;1.80;;
22024;SDS011;11176;51.448;6.650;2023-03-23T04:31:41;3.15;;;1.70;;
22024;SDS011;11176;51.448;6.650;2023-03-23T04:34:31;5.18;;;2.33;;
22024;SDS011;11176;51.448;6.650;2023-03-23T04:36:58;2.80;;;1.75;;
22024;SDS011;11176;51.448;6.650;2023-03-23T04:39:27;3.38;;;1.90;;
22024;SDS011;11176;51.448;6.650;2023-03-23T04:41:55;3.50;;;1.90;;
22024;SDS011;11176;51.448;6.650;2023-03-23T04:44:49;3.45;;;2.10;;
22024;SDS011;11176;51.448;6.650;2023-03-23T04:49:54;3.58;;;1.85;;
22024;SDS011;11176;51.448;6.650;2023-03-23T04:52:28;5.15;;;2.08;;
22024;SDS011;11176;51.448;6.650;2023-03-23T04:54:56;3.50;;;2.08;;
22024;SDS011;11176;51.448;6.650;2023-03-23T04:57:22;3.53;;;1.60;;
22024;SDS011;11176;51.448;6.650;2023-03-23T05:00:09;4.32;;;2.08;;
22024;SDS011;11176;51.448;6.650;2023-03-23T05:02:44;4.43;;;2.35;;
22024;SDS011;11176;51.448;6.650;2023-03-23T05:05:19;3.50;;;1.92;;
22024;SDS011;11176;51.448;6.650;2023-03-23T05:07:46;3.92;;;1.90;;
22024;SDS011;11176;51.448;6.650;2023-03-23T05:10:14;4.30;;;2.30;;
22024;SDS011;11176;51.448;6.650;2023-03-23T05:12:41;2.75;;;1.83;;
22024;SDS011;11176;51.448;6.650;2023-03-23T05:15:09;3.78;;;2.10;;
22024;SDS011;11176;51.448;6.650;2023-03-23T05:17:39;4.03;;;2.05;;
22024;SDS011;11176;51.448;6.650;2023-03-23T05:20:17;3.42;;;1.90;;
22024;SDS011;11176;51.448;6.650;2023-03-23T05:22:47;3.17;;;2.00;;
22024;SDS011;11176;51.448;6.650;2023-03-23T05:25:17;2.97;;;1.75;;
22024;SDS011;11176;51.448;6.650;2023-03-23T05:27:51;4.93;;;2.25;;
22024;SDS011;11176;51.448;6.650;2023-03-23T05:30:37;4.30;;;2.05;;
22024;SDS011;11176;51.448;6.650;2023-03-23T05:33:04;4.22;;;1.98;;
22024;SDS011;11176;51.448;6.650;2023-03-23T05:35:44;3.65;;;1.80;;
22024;SDS011;11176;51.448;6.650;2023-03-23T05:38:12;3.72;;;2.15;;
22024;SDS011;11176;51.448;6.650;2023-03-23T05:40:38;3.33;;;1.90;;
22024;SDS011;11176;51.448;6.650;2023-03-23T05:43:13;3.42;;;2.10;;
22024;SDS011;11176;51.448;6.650;2023-03-23T05:46:07;8.43;;;1.92;;
22024;SDS011;11176;51.448;6.650;2023-03-23T05:48:34;6.50;;;2.08;;
22024;SDS011;11176;51.448;6.650;2023-03-23T05:51:00;4.90;;;2.22;;
22024;SDS011;11176;51.448;6.650;2023-03-23T05:53:27;4.50;;;1.77;;
22024;SDS011;11176;51.448;6.650;2023-03-23T05:55:57;4.75;;;2.00;;
22024;SDS011;11176;51.448;6.650;2023-03-23T05:58:41;3.92;;;2.10;;
22024;SDS011;11176;51.448;6.650;2023-03-23T06:01:07;7.47;;;2.30;;
22024;SDS011;11176;51.448;6.650;2023-03-23T06:03:33;3.63;;;2.10;;
22024;SDS011;11176;51.448;6.650;2023-03-23T06:06:10;4.72;;;2.15;;
22024;SDS011;11176;51.448;6.650;2023-03-23T06:09:05;4.38;;;2.10;;
22024;SDS011;11176;51.448;6.650;2023-03-23T06:12:04;3.47;;;1.75;;
22024;SDS011;11176;51.448;6.650;2023-03-23T06:14:58;4.95;;;2.03;;
22024;SDS011;11176;51.448;6.650;2023-03-23T06:17:41;5.30;;;1.92;;
22024;SDS011;11176;51.448;6.650;2023-03-23T06:20:07;3.22;;;1.90;;
22024;SDS011;11176;51.448;6.650;2023-03-23T06:22:38;5.47;;;2.10;;
22024;SDS011;11176;51.448;6.650;2023-03-23T06:25:08;4.88;;;1.92;;
22024;SDS011;11176;51.448;6.650;2023-03-23T06:27:42;5.60;;;2.08;;
22024;SDS011;11176;51.448;6.650;2023-03-23T06:30:08;3.85;;;1.90;;
22024;SDS011;11176;51.448;6.650;2023-03-23T06:32:34;5.80;;;2.15;;
22024;SDS011;11176;51.448;6.650;2023-03-23T06:35:02;5.47;;;2.20;;
22024;SDS011;11176;51.448;6.650;2023-03-23T06:37:46;4.60;;;2.20;;
22024;SDS011;11176;51.448;6.650;2023-03-23T06:40:26;4.13;;;2.20;;
22024;SDS011;11176;51.448;6.650;2023-03-23T06:42:56;5.07;;;2.30;;
22024;SDS011;11176;51.448;6.650;2023-03-23T06:45:40;4.72;;;2.05;;
22024;SDS011;11176;51.448;6.650;2023-03-23T06:48:24;6.25;;;1.98;;
22024;SDS011;11176;51.448;6.650;2023-03-23T06:50:50;4.90;;;2.13;;
22024;SDS011;11176;51.448;6.650;2023-03-23T06:53:19;5.43;;;2.40;;
22024;SDS011;11176;51.448;6.650;2023-03-23T06:55:48;4.90;;;2.15;;
22024;SDS011;11176;51.448;6.650;2023-03-23T06:58:13;4.13;;;1.80;;
22024;SDS011;11176;51.448;6.650;2023-03-23T07:00:39;3.97;;;2.10;;
22024;SDS011;11176;51.448;6.650;2023-03-23T07:03:06;4.65;;;1.98;;
22024;SDS011;11176;51.448;6.650;2023-03-23T07:05:35;5.57;;;1.80;;
22024;SDS011;11176;51.448;6.650;2023-03-23T07:08:02;4.65;;;2.17;;
22024;SDS011;11176;51.448;6.650;2023-03-23T07:10:33;7.57;;;2.20;;
22024;SDS011;11176;51.448;6.650;2023-03-23T07:12:59;5.57;;;1.85;;
22024;SDS011;11176;51.448;6.650;2023-03-23T07:15:28;4.20;;;1.90;;
22024;SDS011;11176;51.448;6.650;2023-03-23T07:17:56;4.10;;;2.05;;
22024;SDS011;11176;51.448;6.650;2023-03-23T07:20:29;4.13;;;1.60;;
22024;SDS011;11176;51.448;6.650;2023-03-23T07:22:54;6.35;;;2.20;;
22024;SDS011;11176;51.448;6.650;2023-03-23T07:25:59;5.60;;;2.08;;
22024;SDS011;11176;51.448;6.650;2023-03-23T07:28:31;4.38;;;1.80;;
22024;SDS011;11176;51.448;6.650;2023-03-23T07:31:06;6.20;;;1.90;;
22024;SDS011;11176;51.448;6.650;2023-03-23T07:33:35;5.45;;;1.77;;
22024;SDS011;11176;51.448;6.650;2023-03-23T07:36:02;4.70;;;1.77;;
22024;SDS011;11176;51.448;6.650;2023-03-23T07:38:29;5.00;;;1.70;;
22024;SDS011;11176;51.448;6.650;2023-03-23T07:40:56;5.00;;;1.80;;
22024;SDS011;11176;51.448;6.650;2023-03-23T07:43:23;4.40;;;1.55;;
22024;SDS011;11176;51.448;6.650;2023-03-23T07:46:07;5.70;;;1.95;;
22024;SDS011;11176;51.448;6.650;2023-03-23T07:48:48;4.80;;;1.90;;
22024;SDS011;11176;51.448;6.650;2023-03-23T07:51:15;5.07;;;1.80;;
22024;SDS011;11176;51.448;6.650;2023-03-23T07:53:42;4.35;;;1.65;;
22024;SDS011;11176;51.448;6.650;2023-03-23T07:56:33;5.00;;;1.83;;
22024;SDS011;11176;51.448;6.650;2023-03-23T07:59:11;8.85;;;2.40;;
22024;SDS011;11176;51.448;6.650;2023-03-23T08:01:39;8.13;;;3.00;;
22024;SDS011;11176;51.448;6.650;2023-03-23T08:04:27;5.85;;;3.17;;
22024;SDS011;11176;51.448;6.650;2023-03-23T08:07:05;7.70;;;2.90;;
22024;SDS011;11176;51.448;6.650;2023-03-23T08:09:47;6.88;;;2.85;;
22024;SDS011;11176;51.448;6.650;2023-03-23T08:12:31;6.07;;;2.40;;
22024;SDS011;11176;51.448;6.650;2023-03-23T08:15:20;10.45;;;4.10;;
22024;SDS011;11176;51.448;6.650;2023-03-23T08:18:03;7.45;;;4.18;;
22024;SDS011;11176;51.448;6.650;2023-03-23T08:20:48;9.63;;;3.58;;
22024;SDS011;11176;51.448;6.650;2023-03-23T08:23:36;8.95;;;3.85;;
22024;SDS011;11176;51.448;6.650;2023-03-23T08:26:20;8.38;;;5.00;;
22024;SDS011;11176;51.448;6.650;2023-03-23T08:29:05;4.47;;;1.85;;
22024;SDS011;11176;51.448;6.650;2023-03-23T08:31:52;7.72;;;3.35;;
22024;SDS011;11176;51.448;6.650;2023-03-23T08:34:38;3.00;;;1.35;;
22024;SDS011;11176;51.448;6.650;2023-03-23T08:37:09;7.47;;;1.88;;
22024;SDS011;11176;51.448;6.650;2023-03-23T08:39:53;9.32;;;2.00;;
22024;SDS011;11176;51.448;6.650;2023-03-23T08:42:38;5.25;;;1.50;;
22024;SDS011;11176;51.448;6.650;2023-03-23T08:45:29;3.90;;;1.48;;
22024;SDS011;11176;51.448;6.650;2023-03-23T08:48:01;5.70;;;1.55;;
22024;SDS011;11176;51.448;6.650;2023-03-23T08:50:50;6.38;;;1.55;;
22024;SDS011;11176;51.448;6.650;2023-03-23T08:53:36;5.63;;;1.60;;
22024;SDS011;11176;51.448;6.650;2023-03-23T08:56:29;5.10;;;1.70;;
22024;SDS011;11176;51.448;6.650;2023-03-23T08:59:13;4.30;;;1.50;;
22024;SDS011;11176;51.448;6.650;2023-03-23T09:01:55;5.53;;;1.70;;
22024;SDS011;11176;51.448;6.650;2023-03-23T09:04:36;5.97;;;1.73;;
22024;SDS011;11176;51.448;6.650;2023-03-23T09:07:19;5.03;;;1.38;;
22024;SDS011;11176;51.448;6.650;2023-03-23T09:09:45;4.13;;;1.67;;
22024;SDS011;11176;51.448;6.650;2023-03-23T09:12:11;5.70;;;1.45;;
22024;SDS011;11176;51.448;6.650;2023-03-23T09:14:37;4.78;;;1.52;;
22024;SDS011;11176;51.448;6.650;2023-03-23T09:17:03;5.53;;;1.65;;
22024;SDS011;11176;51.448;6.650;2023-03-23T09:19:30;6.85;;;1.98;;
22024;SDS011;11176;51.448;6.650;2023-03-23T09:21:58;3.63;;;1.23;;
22024;SDS011;11176;51.448;6.650;2023-03-23T09:24:24;5.18;;;1.63;;
22024;SDS011;11176;51.448;6.650;2023-03-23T09:26:50;6.07;;;1.80;;
22024;SDS011;11176;51.448;6.650;2023-03-23T09:29:15;8.25;;;2.13;;
22024;SDS011;11176;51.448;6.650;2023-03-23T09:31:41;7.00;;;1.48;;
22024;SDS011;11176;51.448;6.650;2023-03-23T09:34:07;4.65;;;1.48;;
22024;SDS011;11176;51.448;6.650;2023-03-23T09:36:35;4.75;;;1.38;;
22024;SDS011;11176;51.448;6.650;2023-03-23T09:39:01;4.45;;;1.30;;
22024;SDS011;11176;51.448;6.650;2023-03-23T09:41:49;5.32;;;1.75;;
22024;SDS011;11176;51.448;6.650;2023-03-23T09:44:36;5.45;;;1.45;;
22024;SDS011;11176;51.448;6.650;2023-03-23T09:47:10;7.10;;;1.60;;
22024;SDS011;11176;51.448;6.650;2023-03-23T09:49:50;8.00;;;1.48;;
22024;SDS011;11176;51.448;6.650;2023-03-23T09:52:18;3.35;;;1.13;;
22024;SDS011;11176;51.448;6.650;2023-03-23T09:54:46;4.50;;;1.02;;
22024;SDS011;11176;51.448;6.650;2023-03-23T10:00:12;2.33;;;0.90;;
22024;SDS011;11176;51.448;6.650;2023-03-23T10:03:05;3.75;;;0.70;;
22024;SDS011;11176;51.448;6.650;2023-03-23T10:05:37;2.50;;;1.00;;
22024;SDS011;11176;51.448;6.650;2023-03-23T10:08:09;6.10;;;1.27;;
22024;SDS011;11176;51.448;6.650;2023-03-23T10:16:03;3.95;;;1.40;;
22024;SDS011;11176;51.448;6.650;2023-03-23T10:18:37;5.15;;;1.20;;
22024;SDS011;11176;51.448;6.650;2023-03-23T10:21:06;4.82;;;1.27;;
22024;SDS011;11176;51.448;6.650;2023-03-23T10:24:01;4.22;;;1.25;;
22024;SDS011;11176;51.448;6.650;2023-03-23T10:29:31;8.02;;;1.50;;
22024;SDS011;11176;51.448;6.650;2023-03-23T10:32:09;4.00;;;1.40;;
22024;SDS011;11176;51.448;6.650;2023-03-23T10:34:42;5.07;;;1.20;;
22024;SDS011;11176;51.448;6.650;2023-03-23T10:40:06;4.05;;;1.05;;
22024;SDS011;11176;51.448;6.650;2023-03-23T10:42:39;4.68;;;1.27;;
22024;SDS011;11176;51.448;6.650;2023-03-23T10:45:15;4.65;;;1.35;;
22024;SDS011;11176;51.448;6.650;2023-03-23T10:47:55;4.63;;;1.05;;
22024;SDS011;11176;51.448;6.650;2023-03-23T10:50:29;3.53;;;1.33;;
22024;SDS011;11176;51.448;6.650;2023-03-23T10:52:57;2.75;;;0.80;;
22024;SDS011;11176;51.448;6.650;2023-03-23T10:55:24;3.45;;;1.35;;
22024;SDS011;11176;51.448;6.650;2023-03-23T10:58:03;2.45;;;1.02;;
22024;SDS011;11176;51.448;6.650;2023-03-23T11:00:40;5.43;;;1.40;;
22024;SDS011;11176;51.448;6.650;2023-03-23T11:05:53;5.75;;;1.23;;
22024;SDS011;11176;51.448;6.650;2023-03-23T11:08:26;5.60;;;1.05;;
22024;SDS011;11176;51.448;6.650;2023-03-23T11:13:48;6.47;;;1.13;;
22024;SDS011;11176;51.448;6.650;2023-03-23T11:16:32;3.92;;;1.10;;
22024;SDS011;11176;51.448;6.650;2023-03-23T11:18:59;3.17;;;1.07;;
22024;SDS011;11176;51.448;6.650;2023-03-23T11:21:36;3.42;;;0.93;;
22024;SDS011;11176;51.448;6.650;2023-03-23T11:24:03;5.53;;;0.98;;
22024;SDS011;11176;51.448;6.650;2023-03-23T11:26:31;6.85;;;1.30;;
22024;SDS011;11176;51.448;6.650;2023-03-23T11:29:02;4.97;;;1.23;;
22024;SDS011;11176;51.448;6.650;2023-03-23T11:31:44;3.30;;;1.30;;
22024;SDS011;11176;51.448;6.650;2023-03-23T11:34:17;3.72;;;1.20;;
22024;SDS011;11176;51.448;6.650;2023-03-23T11:36:50;2.00;;;0.90;;
22024;SDS011;11176;51.448;6.650;2023-03-23T11:39:23;3.90;;;1.10;;
22024;SDS011;11176;51.448;6.650;2023-03-23T11:42:00;2.28;;;0.93;;
22024;SDS011;11176;51.448;6.650;2023-03-23T11:44:32;5.35;;;1.13;;
22024;SDS011;11176;51.448;6.650;2023-03-23T11:47:01;3.20;;;0.98;;
22024;SDS011;11176;51.448;6.650;2023-03-23T11:52:17;3.63;;;1.00;;
22024;SDS011;11176;51.448;6.650;2023-03-23T11:55:00;3.42;;;1.10;;
22024;SDS011;11176;51.448;6.650;2023-03-23T11:57:34;3.00;;;1.00;;
22024;SDS011;11176;51.448;6.650;2023-03-23T12:00:00;5.05;;;1.20;;
22024;SDS011;11176;51.448;6.650;2023-03-23T12:02:42;3.13;;;1.10;;
22024;SDS011;11176;51.448;6.650;2023-03-23T12:05:42;3.28;;;1.00;;
22024;SDS011;11176;51.448;6.650;2023-03-23T12:17:37;2.40;;;1.20;;
22024;SDS011;11176;51.448;6.650;2023-03-23T12:23:44;6.07;;;1.30;;
22024;SDS011;11176;51.448;6.650;2023-03-23T12:26:00;4.32;;;1.50;;
22024;SDS011;11176;51.448;6.650;2023-03-23T12:34:13;4.93;;;1.48;;
22024;SDS011;11176;51.448;6.650;2023-03-23T12:50:21;5.18;;;1.40;;
22024;SDS011;11176;51.448;6.650;2023-03-23T12:53:11;3.60;;;1.20;;
22024;SDS011;11176;51.448;6.650;2023-03-23T12:55:45;3.40;;;1.33;;
22024;SDS011;11176;51.448;6.650;2023-03-23T12:58:26;5.35;;;1.90;;
22024;SDS011;11176;51.448;6.650;2023-03-23T13:00:58;3.75;;;1.20;;
22024;SDS011;11176;51.448;6.650;2023-03-23T13:06:52;4.38;;;1.50;;
22024;SDS011;11176;51.448;6.650;2023-03-23T13:11:42;3.22;;;1.70;;
22024;SDS011;11176;51.448;6.650;2023-03-23T13:16:51;6.57;;;1.80;;
22024;SDS011;11176;51.448;6.650;2023-03-23T13:23:13;3.63;;;1.65;;
22024;SDS011;11176;51.448;6.650;2023-03-23T13:28:33;7.10;;;1.65;;
22024;SDS011;11176;51.448;6.650;2023-03-23T13:31:15;4.18;;;1.60;;
22024;SDS011;11176;51.448;6.650;2023-03-23T13:34:24;3.67;;;1.40;;
22024;SDS011;11176;51.448;6.650;2023-03-23T13:39:04;5.65;;;1.80;;
22024;SDS011;11176;51.448;6.650;2023-03-23T13:41:34;5.18;;;1.58;;
22024;SDS011;11176;51.448;6.650;2023-03-23T13:44:17;4.18;;;1.50;;
22024;SDS011;11176;51.448;6.650;2023-03-23T13:46:53;4.70;;;1.60;;
22024;SDS011;11176;51.448;6.650;2023-03-23T13:49:31;6.13;;;1.20;;
22024;SDS011;11176;51.448;6.650;2023-03-23T13:52:06;5.78;;;1.40;;
22024;SDS011;11176;51.448;6.650;2023-03-23T13:54:41;4.45;;;1.58;;
22024;SDS011;11176;51.448;6.650;2023-03-23T13:57:33;4.18;;;1.67;;
22024;SDS011;11176;51.448;6.650;2023-03-23T14:05:39;3.92;;;1.67;;
22024;SDS011;11176;51.448;6.650;2023-03-23T14:11:09;4.20;;;1.70;;
22024;SDS011;11176;51.448;6.650;2023-03-23T14:13:45;4.13;;;1.60;;
22024;SDS011;11176;51.448;6.650;2023-03-23T14:16:18;5.35;;;1.70;;
22024;SDS011;11176;51.448;6.650;2023-03-23T14:18:56;7.75;;;2.22;;
22024;SDS011;11176;51.448;6.650;2023-03-23T14:23:53;3.97;;;1.50;;
22024;SDS011;11176;51.448;6.650;2023-03-23T14:26:21;4.72;;;1.80;;
22024;SDS011;11176;51.448;6.650;2023-03-23T14:28:49;3.95;;;1.75;;
22024;SDS011;11176;51.448;6.650;2023-03-23T14:31:21;5.90;;;1.98;;
22024;SDS011;11176;51.448;6.650;2023-03-23T14:33:49;5.25;;;1.90;;
22024;SDS011;11176;51.448;6.650;2023-03-23T14:36:20;4.63;;;1.73;;
22024;SDS011;11176;51.448;6.650;2023-03-23T14:39:04;3.65;;;1.63;;
22024;SDS011;11176;51.448;6.650;2023-03-23T14:41:33;4.95;;;1.75;;
22024;SDS011;11176;51.448;6.650;2023-03-23T14:44:00;3.67;;;1.60;;
22024;SDS011;11176;51.448;6.650;2023-03-23T14:46:29;7.65;;;1.80;;
22024;SDS011;11176;51.448;6.650;2023-03-23T14:48:56;3.15;;;1.40;;
22024;SDS011;11176;51.448;6.650;2023-03-23T14:51:26;5.15;;;1.75;;
22024;SDS011;11176;51.448;6.650;2023-03-23T14:53:52;5.38;;;1.83;;
22024;SDS011;11176;51.448;6.650;2023-03-23T14:56:19;5.07;;;1.67;;
22024;SDS011;11176;51.448;6.650;2023-03-23T14:58:51;3.78;;;1.35;;
22024;SDS011;11176;51.448;6.650;2023-03-23T15:01:18;5.05;;;1.40;;
22024;SDS011;11176;51.448;6.650;2023-03-23T15:03:53;6.50;;;1.48;;
22024;SDS011;11176;51.448;6.650;2023-03-23T15:06:20;6.10;;;1.40;;
22024;SDS011;11176;51.448;6.650;2023-03-23T15:08:47;3.95;;;1.40;;
22024;SDS011;11176;51.448;6.650;2023-03-23T15:13:44;4.00;;;1.00;;
22024;SDS011;11176;51.448;6.650;2023-03-23T15:16:13;3.75;;;1.10;;
22024;SDS011;11176;51.448;6.650;2023-03-23T15:18:58;2.90;;;1.00;;
22024;SDS011;11176;51.448;6.650;2023-03-23T15:21:30;4.03;;;1.38;;
22024;SDS011;11176;51.448;6.650;2023-03-23T15:23:59;3.58;;;1.27;;
22024;SDS011;11176;51.448;6.650;2023-03-23T15:26:33;7.50;;;1.50;;
22024;SDS011;11176;51.448;6.650;2023-03-23T15:31:47;4.07;;;1.55;;
22024;SDS011;11176;51.448;6.650;2023-03-23T15:34:36;7.05;;;1.50;;
22024;SDS011;11176;51.448;6.650;2023-03-23T15:37:17;4.57;;;1.40;;
22024;SDS011;11176;51.448;6.650;2023-03-23T15:39:51;3.60;;;1.20;;
22024;SDS011;11176;51.448;6.650;2023-03-23T15:42:28;6.03;;;1.40;;
22024;SDS011;11176;51.448;6.650;2023-03-23T15:50:14;6.50;;;1.70;;
22024;SDS011;11176;51.448;6.650;2023-03-23T15:52:42;6.32;;;1.40;;
22024;SDS011;11176;51.448;6.650;2023-03-23T15:55:19;6.72;;;1.67;;
22024;SDS011;11176;51.448;6.650;2023-03-23T15:57:50;11.18;;;2.08;;
22024;SDS011;11176;51.448;6.650;2023-03-23T16:00:18;5.47;;;2.10;;
22024;SDS011;11176;51.448;6.650;2023-03-23T16:02:46;6.82;;;1.88;;
22024;SDS011;11176;51.448;6.650;2023-03-23T16:05:14;5.22;;;1.70;;
22024;SDS011;11176;51.448;6.650;2023-03-23T16:07:41;5.82;;;1.95;;
22024;SDS011;11176;51.448;6.650;2023-03-23T16:10:13;7.22;;;1.60;;
22024;SDS011;11176;51.448;6.650;2023-03-23T16:12:42;7.45;;;2.20;;
22024;SDS011;11176;51.448;6.650;2023-03-23T16:15:09;6.28;;;1.42;;
22024;SDS011;11176;51.448;6.650;2023-03-23T16:17:35;6.75;;;1.75;;
22024;SDS011;11176;51.448;6.650;2023-03-23T16:20:08;5.15;;;1.48;;
22024;SDS011;11176;51.448;6.650;2023-03-23T16:22:39;3.95;;;1.67;;
22024;SDS011;11176;51.448;6.650;2023-03-23T16:25:07;4.90;;;1.75;;
22024;SDS011;11176;51.448;6.650;2023-03-23T16:27:34;6.68;;;2.05;;
22024;SDS011;11176;51.448;6.650;2023-03-23T16:30:01;5.20;;;1.42;;
22024;SDS011;11176;51.448;6.650;2023-03-23T16:32:38;7.15;;;1.70;;
22024;SDS011;11176;51.448;6.650;2023-03-23T16:35:03;4.65;;;1.52;;
22024;SDS011;11176;51.448;6.650;2023-03-23T16:37:30;5.93;;;2.00;;
22024;SDS011;11176;51.448;6.650;2023-03-23T16:39:59;8.18;;;2.03;;
22024;SDS011;11176;51.448;6.650;2023-03-23T16:42:26;7.40;;;1.90;;
22024;SDS011;11176;51.448;6.650;2023-03-23T16:44:53;6.38;;;2.22;;
22024;SDS011;11176;51.448;6.650;2023-03-23T16:47:20;5.97;;;2.35;;
22024;SDS011;11176;51.448;6.650;2023-03-23T16:49:51;5.57;;;2.00;;
22024;SDS011;11176;51.448;6.650;2023-03-23T16:52:19;6.25;;;2.10;;
22024;SDS011;11176;51.448;6.650;2023-03-23T16:54:45;5.97;;;2.00;;
22024;SDS011;11176;51.448;6.650;2023-03-23T16:57:12;5.45;;;2.00;;
22024;SDS011;11176;51.448;6.650;2023-03-23T16:59:38;5.15;;;2.03;;
22024;SDS011;11176;51.448;6.650;2023-03-23T17:02:05;5.00;;;1.77;;
22024;SDS011;11176;51.448;6.650;2023-03-23T17:04:32;9.25;;;2.00;;
22024;SDS011;11176;51.448;6.650;2023-03-23T17:06:59;6.07;;;2.42;;
22024;SDS011;11176;51.448;6.650;2023-03-23T17:09:25;6.28;;;2.03;;
22024;SDS011;11176;51.448;6.650;2023-03-23T17:11:53;5.28;;;1.67;;
22024;SDS011;11176;51.448;6.650;2023-03-23T17:14:20;7.40;;;1.85;;
22024;SDS011;11176;51.448;6.650;2023-03-23T17:16:47;4.40;;;1.70;;
22024;SDS011;11176;51.448;6.650;2023-03-23T17:19:13;6.28;;;2.13;;
22024;SDS011;11176;51.448;6.650;2023-03-23T17:21:39;8.02;;;2.13;;